sensor_id;sensor_type;location;lat;lon;timestamp;temperature;humidity
5723;DHT22;2886;49.722;8.612;2023-02-18T00:00:16;12.20;99.90
5723;DHT22;2886;49.722;8.612;2023-02-18T00:02:44;12.20;99.90
5723;DHT22;2886;49.722;8.612;2023-02-18T00:05:10;12.20;99.90
5723;DHT22;2886;49.722;8.612;2023-02-18T00:07:37;12.20;99.90
5723;DHT22;2886;49.722;8.612;2023-02-18T00:10:06;12.20;99.90
5723;DHT22;2886;49.722;8.612;2023-02-18T00:12:32;12.10;99.90
5723;DHT22;2886;49.722;8.612;2023-02-18T00:14:58;12.10;99.90
5723;DHT22;2886;49.722;8.612;2023-02-18T00:17:24;12.10;99.90
5723;DHT22;2886;49.722;8.612;2023-02-18T00:19:50;12.20;99.90
5723;DHT22;2886;49.722;8.612;2023-02-18T00:22:16;12.20;99.90
5723;DHT22;2886;49.722;8.612;2023-02-18T00:24:41;12.20;99.90
5723;DHT22;2886;49.722;8.612;2023-02-18T00:27:07;12.20;99.90
5723;DHT22;2886;49.722;8.612;2023-02-18T00:29:33;12.20;99.90
5723;DHT22;2886;49.722;8.612;2023-02-18T00:31:59;12.20;99.90
5723;DHT22;2886;49.722;8.612;2023-02-18T00:34:24;12.10;99.90
5723;DHT22;2886;49.722;8.612;2023-02-18T00:36:50;12.10;99.90
5723;DHT22;2886;49.722;8.612;2023-02-18T00:39:16;12.10;99.90
5723;DHT22;2886;49.722;8.612;2023-02-18T00:41:42;12.10;99.90
5723;DHT22;2886;49.722;8.612;2023-02-18T00:44:09;12.10;99.90
5723;DHT22;2886;49.722;8.612;2023-02-18T00:46:36;12.10;99.90
5723;DHT22;2886;49.722;8.612;2023-02-18T00:49:02;12.10;99.90
5723;DHT22;2886;49.722;8.612;2023-02-18T00:51:28;12.00;99.90
5723;DHT22;2886;49.722;8.612;2023-02-18T00:53:54;12.00;99.90
5723;DHT22;2886;49.722;8.612;2023-02-18T00:56:20;12.00;99.90
5723;DHT22;2886;49.722;8.612;2023-02-18T00:58:45;11.90;99.90
5723;DHT22;2886;49.722;8.612;2023-02-18T01:01:11;11.90;99.90
5723;DHT22;2886;49.722;8.612;2023-02-18T01:03:38;11.80;99.90
5723;DHT22;2886;49.722;8.612;2023-02-18T01:06:05;11.80;99.90
5723;DHT22;2886;49.722;8.612;2023-02-18T01:08:31;11.80;99.90
5723;DHT22;2886;49.722;8.612;2023-02-18T01:10:58;11.80;99.90
5723;DHT22;2886;49.722;8.612;2023-02-18T01:13:24;11.80;99.90
5723;DHT22;2886;49.722;8.612;2023-02-18T01:15:51;11.70;99.90
5723;DHT22;2886;49.722;8.612;2023-02-18T01:18:18;11.70;99.90
5723;DHT22;2886;49.722;8.612;2023-02-18T01:20:45;11.70;99.90
5723;DHT22;2886;49.722;8.612;2023-02-18T01:23:11;11.70;99.90
5723;DHT22;2886;49.722;8.612;2023-02-18T01:25:38;11.70;99.90
5723;DHT22;2886;49.722;8.612;2023-02-18T01:28:05;11.70;99.90
5723;DHT22;2886;49.722;8.612;2023-02-18T01:30:32;11.60;99.90
5723;DHT22;2886;49.722;8.612;2023-02-18T01:32:57;11.70;99.90
5723;DHT22;2886;49.722;8.612;2023-02-18T01:35:23;11.60;99.90
5723;DHT22;2886;49.722;8.612;2023-02-18T01:37:49;11.60;99.90
5723;DHT22;2886;49.722;8.612;2023-02-18T01:40:18;11.60;99.90
5723;DHT22;2886;49.722;8.612;2023-02-18T01:42:44;11.60;99.90
5723;DHT22;2886;49.722;8.612;2023-02-18T01:45:36;11.60;99.90
5723;DHT22;2886;49.722;8.612;2023-02-18T01:48:45;11.60;99.90
5723;DHT22;2886;49.722;8.612;2023-02-18T01:51:31;11.70;99.90
5723;DHT22;2886;49.722;8.612;2023-02-18T01:56:49;11.60;99.90
5723;DHT22;2886;49.722;8.612;2023-02-18T01:59:20;11.60;99.90
5723;DHT22;2886;49.722;8.612;2023-02-18T02:01:48;11.60;99.90
5723;DHT22;2886;49.722;8.612;2023-02-18T02:04:13;11.60;99.90
5723;DHT22;2886;49.722;8.612;2023-02-18T02:06:39;11.60;99.90
5723;DHT22;2886;49.722;8.612;2023-02-18T02:09:08;11.60;99.90
5723;DHT22;2886;49.722;8.612;2023-02-18T02:17:12;11.60;99.90
5723;DHT22;2886;49.722;8.612;2023-02-18T02:20:16;11.70;99.90
5723;DHT22;2886;49.722;8.612;2023-02-18T02:25:44;11.60;99.90
5723;DHT22;2886;49.722;8.612;2023-02-18T02:54:13;11.60;99.90
5723;DHT22;2886;49.722;8.612;2023-02-18T02:56:39;11.60;99.90
5723;DHT22;2886;49.722;8.612;2023-02-18T02:59:08;11.60;99.90
5723;DHT22;2886;49.722;8.612;2023-02-18T03:07:06;11.70;99.90
5723;DHT22;2886;49.722;8.612;2023-02-18T03:15:20;11.70;99.90
5723;DHT22;2886;49.722;8.612;2023-02-18T03:20:30;11.70;99.90
5723;DHT22;2886;49.722;8.612;2023-02-18T03:22:59;11.80;99.90
5723;DHT22;2886;49.722;8.612;2023-02-18T03:25:27;11.80;99.90
5723;DHT22;2886;49.722;8.612;2023-02-18T03:28:14;11.80;99.90
5723;DHT22;2886;49.722;8.612;2023-02-18T03:30:52;11.80;99.90
5723;DHT22;2886;49.722;8.612;2023-02-18T03:33:25;11.80;99.90
5723;DHT22;2886;49.722;8.612;2023-02-18T03:35:53;11.80;99.90
5723;DHT22;2886;49.722;8.612;2023-02-18T03:41:09;11.80;99.90
5723;DHT22;2886;49.722;8.612;2023-02-18T03:43:35;11.70;99.90
5723;DHT22;2886;49.722;8.612;2023-02-18T03:46:01;11.80;99.90
5723;DHT22;2886;49.722;8.612;2023-02-18T03:48:27;11.80;99.90
5723;DHT22;2886;49.722;8.612;2023-02-18T03:50:53;11.80;99.90
5723;DHT22;2886;49.722;8.612;2023-02-18T03:53:19;11.80;99.90
5723;DHT22;2886;49.722;8.612;2023-02-18T03:55:44;11.80;99.90
5723;DHT22;2886;49.722;8.612;2023-02-18T03:58:10;11.80;99.90
5723;DHT22;2886;49.722;8.612;2023-02-18T04:00:35;11.90;99.90
5723;DHT22;2886;49.722;8.612;2023-02-18T04:03:01;11.80;99.90
5723;DHT22;2886;49.722;8.612;2023-02-18T04:05:27;11.80;99.90
5723;DHT22;2886;49.722;8.612;2023-02-18T04:07:54;11.80;99.90
5723;DHT22;2886;49.722;8.612;2023-02-18T04:10:19;11.90;99.90
5723;DHT22;2886;49.722;8.612;2023-02-18T04:12:47;11.90;99.90
5723;DHT22;2886;49.722;8.612;2023-02-18T04:15:13;11.90;99.90
5723;DHT22;2886;49.722;8.612;2023-02-18T04:17:39;11.90;99.90
5723;DHT22;2886;49.722;8.612;2023-02-18T04:20:05;11.90;99.90
5723;DHT22;2886;49.722;8.612;2023-02-18T04:22:31;11.90;99.90
5723;DHT22;2886;49.722;8.612;2023-02-18T04:24:56;11.90;99.90
5723;DHT22;2886;49.722;8.612;2023-02-18T04:27:23;11.90;99.90
5723;DHT22;2886;49.722;8.612;2023-02-18T04:29:49;11.90;99.90
5723;DHT22;2886;49.722;8.612;2023-02-18T04:32:15;11.90;99.90
5723;DHT22;2886;49.722;8.612;2023-02-18T04:34:40;11.90;99.90
5723;DHT22;2886;49.722;8.612;2023-02-18T04:37:06;12.00;99.90
5723;DHT22;2886;49.722;8.612;2023-02-18T04:39:32;11.90;99.90
5723;DHT22;2886;49.722;8.612;2023-02-18T04:41:58;12.00;99.90
5723;DHT22;2886;49.722;8.612;2023-02-18T04:44:24;11.90;99.90
5723;DHT22;2886;49.722;8.612;2023-02-18T04:46:49;11.90;99.90
5723;DHT22;2886;49.722;8.612;2023-02-18T04:49:15;12.00;99.90
5723;DHT22;2886;49.722;8.612;2023-02-18T04:51:41;11.90;99.90
5723;DHT22;2886;49.722;8.612;2023-02-18T04:54:06;11.90;99.90
5723;DHT22;2886;49.722;8.612;2023-02-18T04:56:32;11.90;99.90
5723;DHT22;2886;49.722;8.612;2023-02-18T04:58:57;11.90;99.90
5723;DHT22;2886;49.722;8.612;2023-02-18T05:01:23;11.90;99.90
5723;DHT22;2886;49.722;8.612;2023-02-18T05:03:48;11.80;99.90
5723;DHT22;2886;49.722;8.612;2023-02-18T05:06:14;11.90;99.90
5723;DHT22;2886;49.722;8.612;2023-02-18T05:08:40;11.90;99.90
5723;DHT22;2886;49.722;8.612;2023-02-18T05:11:07;11.90;99.90
5723;DHT22;2886;49.722;8.612;2023-02-18T05:13:33;11.90;99.90
5723;DHT22;2886;49.722;8.612;2023-02-18T05:15:59;11.90;99.90
5723;DHT22;2886;49.722;8.612;2023-02-18T05:18:25;11.90;99.90
5723;DHT22;2886;49.722;8.612;2023-02-18T05:20:50;11.90;99.90
5723;DHT22;2886;49.722;8.612;2023-02-18T05:23:16;11.80;99.90
5723;DHT22;2886;49.722;8.612;2023-02-18T05:25:44;11.90;99.90
5723;DHT22;2886;49.722;8.612;2023-02-18T05:28:10;11.90;99.90
5723;DHT22;2886;49.722;8.612;2023-02-18T05:30:35;11.90;99.90
5723;DHT22;2886;49.722;8.612;2023-02-18T05:33:01;11.90;99.90
5723;DHT22;2886;49.722;8.612;2023-02-18T05:35:27;11.90;99.90
5723;DHT22;2886;49.722;8.612;2023-02-18T05:37:52;11.80;99.90
5723;DHT22;2886;49.722;8.612;2023-02-18T05:40:18;11.80;99.90
5723;DHT22;2886;49.722;8.612;2023-02-18T05:42:44;11.80;99.90
5723;DHT22;2886;49.722;8.612;2023-02-18T05:45:09;11.90;99.90
5723;DHT22;2886;49.722;8.612;2023-02-18T05:47:36;11.90;99.90
5723;DHT22;2886;49.722;8.612;2023-02-18T05:50:02;11.90;99.90
5723;DHT22;2886;49.722;8.612;2023-02-18T05:52:28;11.90;99.90
5723;DHT22;2886;49.722;8.612;2023-02-18T05:54:54;12.00;99.90
5723;DHT22;2886;49.722;8.612;2023-02-18T05:57:20;12.00;99.90
5723;DHT22;2886;49.722;8.612;2023-02-18T05:59:45;11.90;99.90
5723;DHT22;2886;49.722;8.612;2023-02-18T06:02:11;12.00;99.90
5723;DHT22;2886;49.722;8.612;2023-02-18T06:04:37;11.90;99.90
5723;DHT22;2886;49.722;8.612;2023-02-18T06:07:03;11.90;99.90
5723;DHT22;2886;49.722;8.612;2023-02-18T06:09:29;11.90;99.90
5723;DHT22;2886;49.722;8.612;2023-02-18T06:11:54;11.90;99.90
5723;DHT22;2886;49.722;8.612;2023-02-18T06:14:20;11.90;99.90
5723;DHT22;2886;49.722;8.612;2023-02-18T06:16:47;11.90;99.90
5723;DHT22;2886;49.722;8.612;2023-02-18T06:19:12;11.90;99.90
5723;DHT22;2886;49.722;8.612;2023-02-18T06:21:38;11.90;99.90
5723;DHT22;2886;49.722;8.612;2023-02-18T06:24:03;11.90;99.90
5723;DHT22;2886;49.722;8.612;2023-02-18T06:26:29;11.90;99.90
5723;DHT22;2886;49.722;8.612;2023-02-18T06:28:55;11.80;99.90
5723;DHT22;2886;49.722;8.612;2023-02-18T06:31:20;11.80;99.90
5723;DHT22;2886;49.722;8.612;2023-02-18T06:33:46;11.80;99.90
5723;DHT22;2886;49.722;8.612;2023-02-18T06:36:12;11.80;99.90
5723;DHT22;2886;49.722;8.612;2023-02-18T06:38:43;11.80;99.90
5723;DHT22;2886;49.722;8.612;2023-02-18T06:41:11;11.80;99.90
5723;DHT22;2886;49.722;8.612;2023-02-18T06:43:37;11.70;99.90
5723;DHT22;2886;49.722;8.612;2023-02-18T06:46:04;11.80;99.90
5723;DHT22;2886;49.722;8.612;2023-02-18T06:48:31;11.70;99.90
5723;DHT22;2886;49.722;8.612;2023-02-18T06:50:56;11.70;99.90
5723;DHT22;2886;49.722;8.612;2023-02-18T06:53:22;11.70;99.90
5723;DHT22;2886;49.722;8.612;2023-02-18T06:55:48;11.70;99.90
5723;DHT22;2886;49.722;8.612;2023-02-18T06:58:14;11.80;99.90
5723;DHT22;2886;49.722;8.612;2023-02-18T07:00:42;11.80;99.90
5723;DHT22;2886;49.722;8.612;2023-02-18T07:03:11;11.80;99.90
5723;DHT22;2886;49.722;8.612;2023-02-18T07:05:37;11.80;99.90
5723;DHT22;2886;49.722;8.612;2023-02-18T07:08:03;11.80;99.90
5723;DHT22;2886;49.722;8.612;2023-02-18T07:13:05;11.90;99.90
5723;DHT22;2886;49.722;8.612;2023-02-18T07:15:31;11.90;99.90
5723;DHT22;2886;49.722;8.612;2023-02-18T07:17:56;11.90;99.90
5723;DHT22;2886;49.722;8.612;2023-02-18T07:20:22;11.90;99.90
5723;DHT22;2886;49.722;8.612;2023-02-18T07:22:48;11.90;99.90
5723;DHT22;2886;49.722;8.612;2023-02-18T07:25:14;11.90;99.90
5723;DHT22;2886;49.722;8.612;2023-02-18T07:27:40;11.90;99.90
5723;DHT22;2886;49.722;8.612;2023-02-18T07:30:07;11.90;99.90
5723;DHT22;2886;49.722;8.612;2023-02-18T07:32:33;11.90;99.90
5723;DHT22;2886;49.722;8.612;2023-02-18T07:34:59;12.00;99.90
5723;DHT22;2886;49.722;8.612;2023-02-18T07:37:24;12.00;99.90
5723;DHT22;2886;49.722;8.612;2023-02-18T07:39:50;12.00;99.90
5723;DHT22;2886;49.722;8.612;2023-02-18T07:42:16;12.00;99.90
5723;DHT22;2886;49.722;8.612;2023-02-18T07:44:42;12.00;99.90
5723;DHT22;2886;49.722;8.612;2023-02-18T07:47:13;12.10;99.90
5723;DHT22;2886;49.722;8.612;2023-02-18T07:49:39;12.10;99.90
5723;DHT22;2886;49.722;8.612;2023-02-18T07:52:05;12.10;99.90
5723;DHT22;2886;49.722;8.612;2023-02-18T07:54:31;12.10;99.90
5723;DHT22;2886;49.722;8.612;2023-02-18T07:56:57;12.10;99.90
5723;DHT22;2886;49.722;8.612;2023-02-18T07:59:22;12.10;99.90
5723;DHT22;2886;49.722;8.612;2023-02-18T08:01:48;12.20;99.90
5723;DHT22;2886;49.722;8.612;2023-02-18T08:04:14;12.20;99.90
5723;DHT22;2886;49.722;8.612;2023-02-18T08:06:42;12.20;99.90
5723;DHT22;2886;49.722;8.612;2023-02-18T08:09:08;12.20;99.90
5723;DHT22;2886;49.722;8.612;2023-02-18T08:11:35;12.20;99.90
5723;DHT22;2886;49.722;8.612;2023-02-18T08:14:01;12.30;99.90
5723;DHT22;2886;49.722;8.612;2023-02-18T08:16:26;12.30;99.90
5723;DHT22;2886;49.722;8.612;2023-02-18T08:18:52;12.40;99.90
5723;DHT22;2886;49.722;8.612;2023-02-18T08:21:20;12.50;99.90
5723;DHT22;2886;49.722;8.612;2023-02-18T08:23:46;12.50;99.90
5723;DHT22;2886;49.722;8.612;2023-02-18T08:26:13;12.60;99.90
5723;DHT22;2886;49.722;8.612;2023-02-18T08:28:39;12.60;99.90
5723;DHT22;2886;49.722;8.612;2023-02-18T08:31:05;12.60;99.90
5723;DHT22;2886;49.722;8.612;2023-02-18T08:33:31;12.60;99.90
5723;DHT22;2886;49.722;8.612;2023-02-18T08:35:56;12.70;99.90
5723;DHT22;2886;49.722;8.612;2023-02-18T08:38:23;12.70;99.90
5723;DHT22;2886;49.722;8.612;2023-02-18T08:40:50;12.70;99.90
5723;DHT22;2886;49.722;8.612;2023-02-18T08:43:16;12.70;99.90
5723;DHT22;2886;49.722;8.612;2023-02-18T08:45:43;12.80;99.90
5723;DHT22;2886;49.722;8.612;2023-02-18T08:48:10;12.90;99.90
5723;DHT22;2886;49.722;8.612;2023-02-18T08:50:36;12.90;99.90
5723;DHT22;2886;49.722;8.612;2023-02-18T08:53:03;13.00;99.90
5723;DHT22;2886;49.722;8.612;2023-02-18T08:55:30;13.00;99.90
5723;DHT22;2886;49.722;8.612;2023-02-18T08:57:56;13.00;99.90
5723;DHT22;2886;49.722;8.612;2023-02-18T09:00:22;13.00;99.90
5723;DHT22;2886;49.722;8.612;2023-02-18T09:02:48;13.00;99.90
5723;DHT22;2886;49.722;8.612;2023-02-18T09:05:14;13.00;99.90
5723;DHT22;2886;49.722;8.612;2023-02-18T09:07:39;13.10;99.90
5723;DHT22;2886;49.722;8.612;2023-02-18T09:10:06;13.10;99.90
5723;DHT22;2886;49.722;8.612;2023-02-18T09:12:33;13.10;99.90
5723;DHT22;2886;49.722;8.612;2023-02-18T09:14:58;13.10;99.80
5723;DHT22;2886;49.722;8.612;2023-02-18T09:17:25;13.20;99.40
5723;DHT22;2886;49.722;8.612;2023-02-18T09:19:51;13.20;99.70
5723;DHT22;2886;49.722;8.612;2023-02-18T09:22:17;13.20;99.60
5723;DHT22;2886;49.722;8.612;2023-02-18T09:24:42;13.30;99.30
5723;DHT22;2886;49.722;8.612;2023-02-18T09:27:08;13.30;99.20
5723;DHT22;2886;49.722;8.612;2023-02-18T09:29:38;13.40;99.00
5723;DHT22;2886;49.722;8.612;2023-02-18T09:32:04;13.30;99.00
5723;DHT22;2886;49.722;8.612;2023-02-18T09:34:30;13.40;98.60
5723;DHT22;2886;49.722;8.612;2023-02-18T09:36:56;13.40;98.70
5723;DHT22;2886;49.722;8.612;2023-02-18T09:39:22;13.50;98.50
5723;DHT22;2886;49.722;8.612;2023-02-18T09:41:57;13.50;98.10
5723;DHT22;2886;49.722;8.612;2023-02-18T09:44:34;13.60;97.80
5723;DHT22;2886;49.722;8.612;2023-02-18T09:47:08;13.70;97.90
5723;DHT22;2886;49.722;8.612;2023-02-18T09:49:42;13.70;97.10
5723;DHT22;2886;49.722;8.612;2023-02-18T09:54:40;13.70;96.70
5723;DHT22;2886;49.722;8.612;2023-02-18T09:57:14;13.70;97.00
5723;DHT22;2886;49.722;8.612;2023-02-18T09:59:42;13.70;96.70
5723;DHT22;2886;49.722;8.612;2023-02-18T10:02:13;13.80;96.60
5723;DHT22;2886;49.722;8.612;2023-02-18T10:04:43;13.80;96.80
5723;DHT22;2886;49.722;8.612;2023-02-18T10:07:22;13.80;96.90
5723;DHT22;2886;49.722;8.612;2023-02-18T10:09:50;13.80;97.00
5723;DHT22;2886;49.722;8.612;2023-02-18T10:12:18;13.90;96.40
5723;DHT22;2886;49.722;8.612;2023-02-18T10:14:57;13.90;96.30
5723;DHT22;2886;49.722;8.612;2023-02-18T10:17:25;14.00;96.20
5723;DHT22;2886;49.722;8.612;2023-02-18T10:19:52;14.00;95.70
5723;DHT22;2886;49.722;8.612;2023-02-18T10:22:20;13.90;95.90
5723;DHT22;2886;49.722;8.612;2023-02-18T10:24:55;13.70;96.20
5723;DHT22;2886;49.722;8.612;2023-02-18T10:27:28;13.60;96.50
5723;DHT22;2886;49.722;8.612;2023-02-18T10:29:59;13.50;96.70
5723;DHT22;2886;49.722;8.612;2023-02-18T10:32:34;13.50;96.60
5723;DHT22;2886;49.722;8.612;2023-02-18T10:35:24;13.40;96.80
5723;DHT22;2886;49.722;8.612;2023-02-18T10:38:16;13.30;97.20
5723;DHT22;2886;49.722;8.612;2023-02-18T10:41:06;13.30;97.10
5723;DHT22;2886;49.722;8.612;2023-02-18T10:46:39;13.20;96.20
5723;DHT22;2886;49.722;8.612;2023-02-18T10:52:01;13.20;95.80
5723;DHT22;2886;49.722;8.612;2023-02-18T10:55:01;13.20;95.80
5723;DHT22;2886;49.722;8.612;2023-02-18T10:57:29;13.10;96.00
5723;DHT22;2886;49.722;8.612;2023-02-18T10:59:58;13.10;95.60
5723;DHT22;2886;49.722;8.612;2023-02-18T11:02:28;13.10;95.90
5723;DHT22;2886;49.722;8.612;2023-02-18T11:04:58;13.10;96.00
5723;DHT22;2886;49.722;8.612;2023-02-18T11:07:33;13.20;95.60
5723;DHT22;2886;49.722;8.612;2023-02-18T11:10:34;13.10;95.10
5723;DHT22;2886;49.722;8.612;2023-02-18T11:13:05;13.20;94.90
5723;DHT22;2886;49.722;8.612;2023-02-18T11:15:31;13.30;94.80
5723;DHT22;2886;49.722;8.612;2023-02-18T11:18:13;13.30;94.70
5723;DHT22;2886;49.722;8.612;2023-02-18T11:21:01;13.50;94.00
5723;DHT22;2886;49.722;8.612;2023-02-18T11:23:27;13.70;92.70
5723;DHT22;2886;49.722;8.612;2023-02-18T11:26:05;13.70;92.20
5723;DHT22;2886;49.722;8.612;2023-02-18T11:28:38;13.80;91.50
5723;DHT22;2886;49.722;8.612;2023-02-18T11:31:05;13.90;91.10
5723;DHT22;2886;49.722;8.612;2023-02-18T11:33:40;14.00;91.00
5723;DHT22;2886;49.722;8.612;2023-02-18T11:36:32;14.00;91.00
5723;DHT22;2886;49.722;8.612;2023-02-18T11:39:29;14.10;90.10
5723;DHT22;2886;49.722;8.612;2023-02-18T11:41:59;14.10;90.00
5723;DHT22;2886;49.722;8.612;2023-02-18T11:44:28;14.00;88.90
5723;DHT22;2886;49.722;8.612;2023-02-18T11:49:38;13.90;88.10
5723;DHT22;2886;49.722;8.612;2023-02-18T11:52:18;13.90;87.40
5723;DHT22;2886;49.722;8.612;2023-02-18T11:57:46;13.70;88.00
5723;DHT22;2886;49.722;8.612;2023-02-18T12:00:24;13.60;88.00
5723;DHT22;2886;49.722;8.612;2023-02-18T12:02:56;13.60;87.90
5723;DHT22;2886;49.722;8.612;2023-02-18T12:05:25;13.60;87.80
5723;DHT22;2886;49.722;8.612;2023-02-18T12:07:52;13.60;87.80
5723;DHT22;2886;49.722;8.612;2023-02-18T12:10:34;13.60;87.10
5723;DHT22;2886;49.722;8.612;2023-02-18T12:13:34;13.60;87.60
5723;DHT22;2886;49.722;8.612;2023-02-18T12:16:10;13.60;87.50
5723;DHT22;2886;49.722;8.612;2023-02-18T12:21:54;13.80;86.50
5723;DHT22;2886;49.722;8.612;2023-02-18T12:24:39;13.80;87.00
5723;DHT22;2886;49.722;8.612;2023-02-18T12:27:19;13.80;86.30
5723;DHT22;2886;49.722;8.612;2023-02-18T12:30:19;13.80;86.90
5723;DHT22;2886;49.722;8.612;2023-02-18T12:33:00;13.90;86.90
5723;DHT22;2886;49.722;8.612;2023-02-18T12:35:40;13.90;86.60
5723;DHT22;2886;49.722;8.612;2023-02-18T12:39:07;14.10;86.40
5723;DHT22;2886;49.722;8.612;2023-02-18T12:41:18;14.10;85.80
5723;DHT22;2886;49.722;8.612;2023-02-18T12:49:56;14.30;86.30
5723;DHT22;2886;49.722;8.612;2023-02-18T12:58:47;14.30;86.40
5723;DHT22;2886;49.722;8.612;2023-02-18T13:07:19;14.40;86.00
5723;DHT22;2886;49.722;8.612;2023-02-18T13:15:45;14.20;87.00
5723;DHT22;2886;49.722;8.612;2023-02-18T13:18:19;14.20;86.60
5723;DHT22;2886;49.722;8.612;2023-02-18T13:20:53;14.30;86.40
5723;DHT22;2886;49.722;8.612;2023-02-18T13:23:27;14.20;86.00
5723;DHT22;2886;49.722;8.612;2023-02-18T13:25:59;14.30;85.90
5723;DHT22;2886;49.722;8.612;2023-02-18T13:28:30;14.20;86.20
5723;DHT22;2886;49.722;8.612;2023-02-18T13:39:59;14.80;85.20
5723;DHT22;2886;49.722;8.612;2023-02-18T13:42:35;14.90;84.90
5723;DHT22;2886;49.722;8.612;2023-02-18T13:45:04;14.90;84.20
5723;DHT22;2886;49.722;8.612;2023-02-18T13:47:43;14.80;83.00
5723;DHT22;2886;49.722;8.612;2023-02-18T13:52:51;14.70;83.70
5723;DHT22;2886;49.722;8.612;2023-02-18T13:55:25;14.80;83.70
5723;DHT22;2886;49.722;8.612;2023-02-18T13:57:53;14.60;84.30
5723;DHT22;2886;49.722;8.612;2023-02-18T14:00:23;14.50;84.80
5723;DHT22;2886;49.722;8.612;2023-02-18T14:03:01;14.40;85.20
5723;DHT22;2886;49.722;8.612;2023-02-18T14:05:40;14.20;85.40
5723;DHT22;2886;49.722;8.612;2023-02-18T14:08:14;14.20;86.00
5723;DHT22;2886;49.722;8.612;2023-02-18T14:13:40;14.10;87.00
5723;DHT22;2886;49.722;8.612;2023-02-18T14:16:07;14.10;87.30
5723;DHT22;2886;49.722;8.612;2023-02-18T14:21:21;13.90;88.90
5723;DHT22;2886;49.722;8.612;2023-02-18T14:23:58;13.80;89.80
5723;DHT22;2886;49.722;8.612;2023-02-18T14:26:30;13.80;90.00
5723;DHT22;2886;49.722;8.612;2023-02-18T14:28:59;13.70;90.00
5723;DHT22;2886;49.722;8.612;2023-02-18T14:31:27;13.60;90.40
5723;DHT22;2886;49.722;8.612;2023-02-18T14:36:40;13.60;90.60
5723;DHT22;2886;49.722;8.612;2023-02-18T14:39:33;13.50;90.80
5723;DHT22;2886;49.722;8.612;2023-02-18T14:42:23;13.40;91.00
5723;DHT22;2886;49.722;8.612;2023-02-18T14:49:56;13.40;91.30
5723;DHT22;2886;49.722;8.612;2023-02-18T14:52:33;13.30;91.30
5723;DHT22;2886;49.722;8.612;2023-02-18T14:55:02;13.30;91.40
5723;DHT22;2886;49.722;8.612;2023-02-18T14:57:49;13.30;91.60
5723;DHT22;2886;49.722;8.612;2023-02-18T15:00:17;13.30;91.80
5723;DHT22;2886;49.722;8.612;2023-02-18T15:02:43;13.30;91.80
5723;DHT22;2886;49.722;8.612;2023-02-18T15:05:15;13.30;92.00
5723;DHT22;2886;49.722;8.612;2023-02-18T15:07:40;13.20;91.80
5723;DHT22;2886;49.722;8.612;2023-02-18T15:10:13;13.20;92.10
5723;DHT22;2886;49.722;8.612;2023-02-18T15:12:40;13.30;92.10
5723;DHT22;2886;49.722;8.612;2023-02-18T15:15:06;13.30;91.90
5723;DHT22;2886;49.722;8.612;2023-02-18T15:17:32;13.30;92.30
5723;DHT22;2886;49.722;8.612;2023-02-18T15:20:03;13.20;93.40
5723;DHT22;2886;49.722;8.612;2023-02-18T15:22:31;13.10;94.10
5723;DHT22;2886;49.722;8.612;2023-02-18T15:24:58;13.10;94.50
5723;DHT22;2886;49.722;8.612;2023-02-18T15:27:37;13.10;94.50
5723;DHT22;2886;49.722;8.612;2023-02-18T15:32:57;12.90;94.30
5723;DHT22;2886;49.722;8.612;2023-02-18T15:35:26;13.00;94.10
5723;DHT22;2886;49.722;8.612;2023-02-18T15:37:56;12.90;94.00
5723;DHT22;2886;49.722;8.612;2023-02-18T15:40:26;12.90;94.00
5723;DHT22;2886;49.722;8.612;2023-02-18T15:42:56;12.90;93.70
5723;DHT22;2886;49.722;8.612;2023-02-18T15:45:35;12.90;93.90
5723;DHT22;2886;49.722;8.612;2023-02-18T15:48:03;12.90;93.80
5723;DHT22;2886;49.722;8.612;2023-02-18T15:50:36;12.90;94.00
5723;DHT22;2886;49.722;8.612;2023-02-18T15:53:13;12.90;94.10
5723;DHT22;2886;49.722;8.612;2023-02-18T15:55:41;12.90;94.70
5723;DHT22;2886;49.722;8.612;2023-02-18T15:58:14;12.80;94.50
5723;DHT22;2886;49.722;8.612;2023-02-18T16:00:52;12.80;94.50
5723;DHT22;2886;49.722;8.612;2023-02-18T16:03:22;12.80;94.40
5723;DHT22;2886;49.722;8.612;2023-02-18T16:05:48;12.70;94.30
5723;DHT22;2886;49.722;8.612;2023-02-18T16:08:26;12.70;94.20
5723;DHT22;2886;49.722;8.612;2023-02-18T16:13:23;12.70;94.60
5723;DHT22;2886;49.722;8.612;2023-02-18T16:15:50;12.70;94.50
5723;DHT22;2886;49.722;8.612;2023-02-18T16:21:03;12.70;94.60
5723;DHT22;2886;49.722;8.612;2023-02-18T16:23:55;12.60;95.00
5723;DHT22;2886;49.722;8.612;2023-02-18T16:29:15;12.50;95.00
5723;DHT22;2886;49.722;8.612;2023-02-18T16:31:42;12.60;95.10
5723;DHT22;2886;49.722;8.612;2023-02-18T16:34:07;12.60;95.40
5723;DHT22;2886;49.722;8.612;2023-02-18T16:36:33;12.60;95.10
5723;DHT22;2886;49.722;8.612;2023-02-18T16:38:59;12.50;95.50
5723;DHT22;2886;49.722;8.612;2023-02-18T16:41:26;12.50;95.10
5723;DHT22;2886;49.722;8.612;2023-02-18T16:43:53;12.50;95.40
5723;DHT22;2886;49.722;8.612;2023-02-18T16:46:21;12.50;95.80
5723;DHT22;2886;49.722;8.612;2023-02-18T16:48:52;12.40;95.90
5723;DHT22;2886;49.722;8.612;2023-02-18T16:51:31;12.40;95.50
5723;DHT22;2886;49.722;8.612;2023-02-18T16:53:57;12.40;95.60
5723;DHT22;2886;49.722;8.612;2023-02-18T16:56:25;12.40;95.60
5723;DHT22;2886;49.722;8.612;2023-02-18T16:58:51;12.30;95.80
5723;DHT22;2886;49.722;8.612;2023-02-18T17:01:22;12.30;96.20
5723;DHT22;2886;49.722;8.612;2023-02-18T17:03:48;12.30;96.30
5723;DHT22;2886;49.722;8.612;2023-02-18T17:06:15;12.20;96.40
5723;DHT22;2886;49.722;8.612;2023-02-18T17:08:40;12.30;96.40
5723;DHT22;2886;49.722;8.612;2023-02-18T17:11:42;12.30;96.50
5723;DHT22;2886;49.722;8.612;2023-02-18T17:14:01;12.30;96.50
5723;DHT22;2886;49.722;8.612;2023-02-18T17:16:29;12.20;96.50
5723;DHT22;2886;49.722;8.612;2023-02-18T17:18:55;12.20;96.80
5723;DHT22;2886;49.722;8.612;2023-02-18T17:21:23;12.20;97.10
5723;DHT22;2886;49.722;8.612;2023-02-18T17:23:49;12.20;97.10
5723;DHT22;2886;49.722;8.612;2023-02-18T17:26:19;12.20;97.40
5723;DHT22;2886;49.722;8.612;2023-02-18T17:28:45;12.20;97.60
5723;DHT22;2886;49.722;8.612;2023-02-18T17:31:17;12.10;97.80
5723;DHT22;2886;49.722;8.612;2023-02-18T17:33:43;12.10;98.00
5723;DHT22;2886;49.722;8.612;2023-02-18T17:36:10;12.10;98.00
5723;DHT22;2886;49.722;8.612;2023-02-18T17:38:37;12.10;98.10
5723;DHT22;2886;49.722;8.612;2023-02-18T17:41:03;12.10;98.20
5723;DHT22;2886;49.722;8.612;2023-02-18T17:43:29;12.00;98.40
5723;DHT22;2886;49.722;8.612;2023-02-18T17:45:56;12.00;98.50
5723;DHT22;2886;49.722;8.612;2023-02-18T17:48:22;12.00;98.60
5723;DHT22;2886;49.722;8.612;2023-02-18T17:50:48;11.90;98.70
5723;DHT22;2886;49.722;8.612;2023-02-18T17:53:15;11.90;98.80
5723;DHT22;2886;49.722;8.612;2023-02-18T17:55:42;11.90;99.10
5723;DHT22;2886;49.722;8.612;2023-02-18T17:58:08;11.90;99.00
5723;DHT22;2886;49.722;8.612;2023-02-18T18:00:37;11.90;99.10
5723;DHT22;2886;49.722;8.612;2023-02-18T18:03:03;11.90;99.20
5723;DHT22;2886;49.722;8.612;2023-02-18T18:05:34;11.90;99.30
5723;DHT22;2886;49.722;8.612;2023-02-18T18:08:01;11.90;99.60
5723;DHT22;2886;49.722;8.612;2023-02-18T18:10:29;11.80;99.70
5723;DHT22;2886;49.722;8.612;2023-02-18T18:13:01;11.80;99.90
5723;DHT22;2886;49.722;8.612;2023-02-18T18:15:41;11.70;99.90
5723;DHT22;2886;49.722;8.612;2023-02-18T18:18:10;11.70;99.90
5723;DHT22;2886;49.722;8.612;2023-02-18T18:20:37;11.60;99.90
5723;DHT22;2886;49.722;8.612;2023-02-18T18:23:04;11.60;99.90
5723;DHT22;2886;49.722;8.612;2023-02-18T18:25:32;11.60;99.90
5723;DHT22;2886;49.722;8.612;2023-02-18T18:28:00;11.60;99.90
5723;DHT22;2886;49.722;8.612;2023-02-18T18:30:29;11.60;99.90